createdAt,value
2016-11-16T00:00:57.770Z,0
2016-11-16T00:01:58.373Z,0
2016-11-16T00:02:58.993Z,0
2016-11-16T00:03:59.757Z,0
2016-11-16T00:05:00.502Z,0
2016-11-16T00:06:01.115Z,0
2016-11-16T00:07:01.731Z,0
2016-11-16T00:08:02.384Z,0
2016-11-16T00:09:03.042Z,0
2016-11-16T00:10:03.650Z,0
2016-11-16T00:11:04.281Z,0
2016-11-16T00:12:04.895Z,0
2016-11-16T00:13:05.529Z,0
2016-11-16T00:14:06.225Z,0
2016-11-16T00:15:06.833Z,0
2016-11-16T00:16:07.436Z,0
2016-11-16T00:17:08.057Z,0
2016-11-16T00:18:08.711Z,0
2016-11-16T00:19:09.317Z,0
2016-11-16T00:20:09.929Z,0
2016-11-16T00:21:10.551Z,0
2016-11-16T00:22:11.186Z,0
2016-11-16T00:23:11.805Z,0
2016-11-16T00:24:12.419Z,0
2016-11-16T00:25:13.035Z,0
2016-11-16T00:26:13.653Z,0
2016-11-16T00:27:14.315Z,0
2016-11-16T00:28:14.935Z,0
2016-11-16T00:29:15.555Z,0
2016-11-16T00:30:16.195Z,0
2016-11-16T00:31:16.786Z,0
2016-11-16T00:32:17.395Z,0
2016-11-16T00:33:18.010Z,0
2016-11-16T00:34:18.631Z,0
2016-11-16T00:35:19.252Z,0
2016-11-16T00:36:19.885Z,0
2016-11-16T00:37:20.505Z,0
2016-11-16T00:38:21.121Z,0
2016-11-16T00:39:21.732Z,0
2016-11-16T00:40:22.349Z,0
2016-11-16T00:41:22.968Z,0
2016-11-16T00:42:23.591Z,0
2016-11-16T00:43:24.223Z,0
2016-11-16T00:44:24.845Z,0
2016-11-16T00:45:25.465Z,0
2016-11-16T00:46:26.119Z,0
2016-11-16T00:47:26.729Z,0
2016-11-16T00:48:27.349Z,0
2016-11-16T00:49:27.989Z,0
2016-11-16T00:50:28.607Z,0
2016-11-16T00:51:29.221Z,0
2016-11-16T00:52:29.859Z,0
2016-11-16T00:53:30.482Z,0
2016-11-16T00:54:31.110Z,0
2016-11-16T00:55:31.705Z,0
2016-11-16T00:56:32.339Z,0
2016-11-16T00:57:33.000Z,0
2016-11-16T00:58:33.633Z,0
2016-11-16T00:59:34.254Z,0
2016-11-16T01:00:34.875Z,0
2016-11-16T01:01:35.491Z,0
2016-11-16T01:02:36.134Z,0
2016-11-16T01:03:36.736Z,0
2016-11-16T01:04:37.352Z,0
2016-11-16T01:05:37.978Z,0
2016-11-16T01:06:38.598Z,0
2016-11-16T01:07:39.220Z,0
2016-11-16T01:08:39.872Z,0
2016-11-16T01:09:40.531Z,0
2016-11-16T01:10:41.157Z,0
2016-11-16T01:11:41.797Z,0
2016-11-16T01:12:42.473Z,0
2016-11-16T01:13:43.102Z,0
2016-11-16T01:14:43.718Z,0
2016-11-16T01:15:44.341Z,0
2016-11-16T01:16:44.957Z,0
2016-11-16T01:17:45.593Z,0
2016-11-16T01:18:46.261Z,0
2016-11-16T01:19:46.875Z,0
2016-11-16T01:20:47.490Z,0
2016-11-16T01:21:48.112Z,0
2016-11-16T01:22:48.771Z,0
2016-11-16T01:23:49.390Z,0
2016-11-16T01:24:50.080Z,0
2016-11-16T01:25:50.717Z,0
2016-11-16T01:26:51.325Z,0
2016-11-16T01:27:51.963Z,0
2016-11-16T01:28:52.570Z,0
2016-11-16T01:29:53.229Z,0
2016-11-16T01:30:53.844Z,0
2016-11-16T01:31:54.449Z,0
2016-11-16T01:32:55.060Z,0
2016-11-16T01:33:55.676Z,0
2016-11-16T01:34:56.282Z,0
2016-11-16T01:35:56.894Z,0
2016-11-16T01:36:57.497Z,0
2016-11-16T01:37:58.131Z,0
2016-11-16T01:38:58.737Z,0
2016-11-16T01:39:59.348Z,0
2016-11-16T01:40:59.964Z,0
2016-11-16T01:42:00.563Z,0
2016-11-16T01:43:01.183Z,0
2016-11-16T01:44:01.788Z,0
2016-11-16T01:45:02.406Z,0
2016-11-16T01:46:03.021Z,0
2016-11-16T01:47:03.644Z,0
2016-11-16T01:48:04.286Z,0
2016-11-16T01:49:04.899Z,0
2016-11-16T01:50:05.511Z,0
2016-11-16T01:51:06.124Z,0
2016-11-16T01:52:06.748Z,0
2016-11-16T01:53:07.379Z,0
2016-11-16T01:54:07.987Z,0
2016-11-16T01:55:08.609Z,0
2016-11-16T01:56:09.216Z,0
2016-11-16T01:57:09.865Z,0
2016-11-16T01:58:10.473Z,0
2016-11-16T01:59:11.110Z,0
2016-11-16T02:00:11.716Z,0
2016-11-16T02:01:12.357Z,0
2016-11-16T02:02:12.959Z,0
2016-11-16T02:03:13.581Z,0
2016-11-16T02:04:14.201Z,0
2016-11-16T02:05:14.839Z,0
2016-11-16T02:06:15.445Z,0
2016-11-16T02:07:16.064Z,0
2016-11-16T02:08:16.689Z,0
2016-11-16T02:09:17.335Z,0
2016-11-16T02:10:17.955Z,0
2016-11-16T02:11:18.583Z,0
2016-11-16T02:12:19.198Z,0
2016-11-16T02:13:19.791Z,0
2016-11-16T02:14:20.433Z,0
2016-11-16T02:15:21.031Z,0
2016-11-16T02:16:21.663Z,0
2016-11-16T02:17:22.290Z,0
2016-11-16T02:18:22.898Z,0
2016-11-16T02:19:23.528Z,0
2016-11-16T02:20:24.148Z,0
2016-11-16T02:21:24.764Z,0
2016-11-16T02:22:25.391Z,0
2016-11-16T02:23:26.009Z,0
2016-11-16T02:24:26.627Z,0
2016-11-16T02:25:27.266Z,0
2016-11-16T02:26:27.876Z,0
2016-11-16T02:27:28.496Z,0
2016-11-16T02:28:29.121Z,0
2016-11-16T02:29:29.733Z,0
2016-11-16T02:30:30.350Z,0
2016-11-16T02:31:30.982Z,0
2016-11-16T02:32:31.610Z,0
2016-11-16T02:33:32.217Z,0
2016-11-16T02:34:32.849Z,0
2016-11-16T02:35:33.472Z,0
2016-11-16T02:36:34.097Z,0
2016-11-16T02:37:34.715Z,0
2016-11-16T02:38:35.337Z,0
2016-11-16T02:39:35.942Z,0
2016-11-16T02:40:36.585Z,0
2016-11-16T02:41:37.200Z,0
2016-11-16T02:42:37.810Z,0
2016-11-16T02:43:38.433Z,0
2016-11-16T02:44:39.095Z,0
2016-11-16T02:45:39.739Z,0
2016-11-16T02:46:47.099Z,0
2016-11-16T02:47:47.817Z,0
2016-11-16T02:48:48.436Z,0
2016-11-16T02:49:49.068Z,0
2016-11-16T02:50:49.690Z,0
2016-11-16T02:51:50.309Z,0
2016-11-16T02:52:50.972Z,0
2016-11-16T02:53:51.562Z,0
2016-11-16T02:54:52.176Z,0
2016-11-16T02:55:52.799Z,0
2016-11-16T02:56:53.421Z,0
2016-11-16T02:57:54.035Z,0
2016-11-16T02:58:54.685Z,0
2016-11-16T02:59:55.279Z,0
2016-11-16T03:00:55.889Z,0
2016-11-16T03:01:56.512Z,0
2016-11-16T03:02:57.136Z,0
2016-11-16T03:03:57.754Z,0
2016-11-16T03:04:58.371Z,0
2016-11-16T03:05:58.980Z,0
2016-11-16T03:06:59.582Z,0
2016-11-16T03:08:00.206Z,0
2016-11-16T03:09:00.964Z,0
2016-11-16T03:10:01.611Z,0
2016-11-16T03:11:02.249Z,0
2016-11-16T03:12:02.853Z,0
2016-11-16T03:13:03.471Z,0
2016-11-16T03:14:04.091Z,0
2016-11-16T03:15:04.700Z,0
2016-11-16T03:16:05.318Z,0
2016-11-16T03:17:05.939Z,0
2016-11-16T03:18:06.594Z,0
2016-11-16T03:19:07.205Z,0
2016-11-16T03:20:07.817Z,0
2016-11-16T03:21:08.423Z,0
2016-11-16T03:22:09.030Z,0
2016-11-16T03:23:09.655Z,0
2016-11-16T03:24:10.303Z,0
2016-11-16T03:25:10.908Z,0
2016-11-16T03:26:11.528Z,0
2016-11-16T03:27:12.165Z,0
2016-11-16T03:28:12.773Z,0
2016-11-16T03:29:13.390Z,0
2016-11-16T03:30:14.003Z,0
2016-11-16T03:31:14.617Z,0
2016-11-16T03:32:15.231Z,0
2016-11-16T03:33:15.833Z,0
2016-11-16T03:34:16.439Z,0
2016-11-16T03:35:17.060Z,0
2016-11-16T03:36:17.695Z,0
2016-11-16T03:37:18.309Z,0
2016-11-16T03:38:18.923Z,0
2016-11-16T03:39:19.541Z,0
2016-11-16T03:40:20.177Z,0
2016-11-16T03:41:20.786Z,0
2016-11-16T03:42:21.402Z,0
2016-11-16T03:43:22.036Z,0
2016-11-16T03:44:22.656Z,0
2016-11-16T03:45:23.266Z,0
2016-11-16T03:46:23.895Z,0
2016-11-16T03:47:24.522Z,0
2016-11-16T03:48:25.142Z,0
2016-11-16T03:49:25.839Z,0
2016-11-16T03:50:26.470Z,0
2016-11-16T03:51:27.093Z,0
2016-11-16T03:52:27.712Z,0
2016-11-16T03:53:28.358Z,0
2016-11-16T03:54:28.978Z,0
2016-11-16T03:55:29.610Z,0
2016-11-16T03:56:30.219Z,0
2016-11-16T03:57:30.879Z,0
2016-11-16T03:58:31.502Z,0
2016-11-16T03:59:32.151Z,0
2016-11-16T04:00:32.780Z,0
2016-11-16T04:01:33.413Z,0
2016-11-16T04:02:34.035Z,0
2016-11-16T04:03:34.657Z,0
2016-11-16T04:04:35.272Z,0
2016-11-16T04:05:35.900Z,0
2016-11-16T04:06:36.522Z,0
2016-11-16T04:07:37.136Z,0
2016-11-16T04:08:37.809Z,0
2016-11-16T04:09:38.427Z,0
2016-11-16T04:10:39.032Z,0
2016-11-16T04:11:39.672Z,0
2016-11-16T04:12:40.290Z,0
2016-11-16T04:13:40.906Z,0
2016-11-16T04:14:41.517Z,0
2016-11-16T04:15:42.122Z,0
2016-11-16T04:16:42.742Z,0
2016-11-16T04:17:43.358Z,0
2016-11-16T04:18:43.958Z,0
2016-11-16T04:19:44.598Z,0
2016-11-16T04:20:45.205Z,0
2016-11-16T04:21:45.824Z,0
2016-11-16T04:22:46.430Z,0
2016-11-16T04:23:47.069Z,0
2016-11-16T04:24:47.685Z,0
2016-11-16T04:25:48.314Z,0
2016-11-16T04:26:48.931Z,0
2016-11-16T04:27:49.561Z,0
2016-11-16T04:28:50.190Z,0
2016-11-16T04:29:50.818Z,0
2016-11-16T04:30:51.455Z,0
2016-11-16T04:31:52.086Z,0
2016-11-16T04:32:52.720Z,0
2016-11-16T04:33:53.330Z,0
2016-11-16T04:34:53.951Z,0
2016-11-16T04:35:54.600Z,0
2016-11-16T04:36:55.211Z,0
2016-11-16T04:37:55.844Z,0
2016-11-16T04:38:56.452Z,0
2016-11-16T04:39:57.125Z,0
2016-11-16T04:40:57.733Z,0
2016-11-16T04:41:58.350Z,0
2016-11-16T04:42:59.008Z,0
2016-11-16T04:43:59.642Z,0
2016-11-16T04:45:00.255Z,0
2016-11-16T04:46:00.889Z,0
2016-11-16T04:47:01.495Z,0
2016-11-16T04:48:02.102Z,0
2016-11-16T04:49:02.718Z,0
2016-11-16T04:50:03.344Z,0
2016-11-16T04:51:03.947Z,0
2016-11-16T04:52:04.573Z,0
2016-11-16T04:53:05.289Z,0
2016-11-16T04:54:05.912Z,0
2016-11-16T04:55:06.538Z,0
2016-11-16T04:56:07.153Z,0
2016-11-16T04:57:07.780Z,0
2016-11-16T04:58:08.390Z,0
2016-11-16T04:59:09.002Z,0
2016-11-16T05:00:09.617Z,0
2016-11-16T05:01:10.245Z,0
2016-11-16T05:02:10.846Z,0
2016-11-16T05:03:11.456Z,0
2016-11-16T05:04:12.079Z,0
2016-11-16T05:05:12.734Z,0
2016-11-16T05:06:13.346Z,0
2016-11-16T05:07:13.956Z,0
2016-11-16T05:08:14.569Z,0
2016-11-16T05:09:15.184Z,0
2016-11-16T05:10:15.826Z,0
2016-11-16T05:11:16.458Z,0
2016-11-16T05:12:17.065Z,0
2016-11-16T05:13:17.676Z,0
2016-11-16T05:14:18.295Z,0
2016-11-16T05:15:18.911Z,0
2016-11-16T05:16:19.530Z,0
2016-11-16T05:17:20.166Z,0
2016-11-16T05:18:20.777Z,0
2016-11-16T05:19:21.388Z,0
2016-11-16T05:20:22.013Z,0
2016-11-16T05:21:22.639Z,0
2016-11-16T05:22:23.259Z,0
2016-11-16T05:23:23.921Z,0
2016-11-16T05:24:24.561Z,0
2016-11-16T05:25:25.174Z,0
2016-11-16T05:26:25.840Z,0
2016-11-16T05:27:26.466Z,0
2016-11-16T05:28:27.093Z,0
2016-11-16T05:29:27.708Z,0
2016-11-16T05:30:28.510Z,0
2016-11-16T05:31:29.148Z,0
2016-11-16T05:32:29.774Z,0
2016-11-16T05:33:30.399Z,0
2016-11-16T05:34:31.016Z,0
2016-11-16T05:35:31.641Z,0
2016-11-16T05:36:32.266Z,0
2016-11-16T05:37:32.876Z,0
2016-11-16T05:38:33.495Z,0
2016-11-16T05:39:34.122Z,0
2016-11-16T05:40:34.738Z,0
2016-11-16T05:41:35.359Z,0
2016-11-16T05:42:35.984Z,0
2016-11-16T05:43:36.668Z,0
2016-11-16T05:44:37.286Z,0
2016-11-16T05:45:37.891Z,0
2016-11-16T05:46:38.504Z,0
2016-11-16T05:47:39.132Z,0
2016-11-16T05:48:39.745Z,0
2016-11-16T05:49:40.375Z,0
2016-11-16T05:50:41.048Z,0
2016-11-16T05:51:41.694Z,0
2016-11-16T05:52:42.418Z,0
2016-11-16T05:53:43.030Z,0
2016-11-16T05:54:43.654Z,0
2016-11-16T05:55:44.274Z,0
2016-11-16T05:56:44.880Z,0
2016-11-16T05:57:45.504Z,0
2016-11-16T05:58:46.149Z,0
2016-11-16T05:59:46.754Z,0
2016-11-16T06:00:47.369Z,0
2016-11-16T06:01:48.724Z,0
2016-11-16T06:02:49.332Z,0
2016-11-16T06:03:50.033Z,0
2016-11-16T06:04:50.691Z,0
2016-11-16T06:05:51.313Z,0
2016-11-16T06:06:51.918Z,0
2016-11-16T06:07:52.542Z,0
2016-11-16T06:08:53.162Z,0
2016-11-16T06:09:53.779Z,0
2016-11-16T06:10:54.393Z,0
2016-11-16T06:11:55.013Z,0
2016-11-16T06:12:55.695Z,0
2016-11-16T06:13:56.318Z,0
2016-11-16T06:14:56.940Z,0
2016-11-16T06:15:57.564Z,0
2016-11-16T06:16:58.166Z,0
2016-11-16T06:17:58.801Z,0
2016-11-16T06:18:59.432Z,4
2016-11-16T06:20:00.052Z,4
2016-11-16T06:21:00.673Z,4
2016-11-16T06:22:01.332Z,4
2016-11-16T06:23:01.948Z,4
2016-11-16T06:24:02.566Z,4
2016-11-16T06:25:03.196Z,4
2016-11-16T06:26:03.841Z,4
2016-11-16T06:27:04.476Z,8
2016-11-16T06:28:05.103Z,8
2016-11-16T06:29:05.737Z,8
2016-11-16T06:30:06.358Z,12
2016-11-16T06:31:06.990Z,16
2016-11-16T06:32:07.602Z,20
2016-11-16T06:33:08.208Z,20
2016-11-16T06:34:08.842Z,24
2016-11-16T06:35:09.468Z,28
2016-11-16T06:36:10.110Z,28
2016-11-16T06:37:10.857Z,28
2016-11-16T06:38:11.484Z,28
2016-11-16T06:39:12.140Z,28
2016-11-16T06:40:12.766Z,32
2016-11-16T06:41:13.391Z,32
2016-11-16T06:42:14.036Z,32
2016-11-16T06:43:14.663Z,32
2016-11-16T06:44:15.279Z,36
2016-11-16T06:45:15.936Z,36
2016-11-16T06:46:16.541Z,40
2016-11-16T06:47:17.221Z,48
2016-11-16T06:48:17.865Z,56
2016-11-16T06:49:18.487Z,56
2016-11-16T06:50:19.164Z,60
2016-11-16T06:51:19.778Z,72
2016-11-16T06:52:20.422Z,80
2016-11-16T06:53:21.044Z,84
2016-11-16T06:54:21.658Z,96
2016-11-16T06:55:22.261Z,92
2016-11-16T06:56:22.875Z,100
2016-11-16T06:57:23.497Z,116
2016-11-16T06:58:24.119Z,132
2016-11-16T06:59:24.737Z,136
2016-11-16T07:00:25.420Z,152
2016-11-16T07:01:26.109Z,152
2016-11-16T07:02:26.712Z,204
2016-11-16T07:03:27.321Z,228
2016-11-16T07:04:27.943Z,212
2016-11-16T07:05:28.548Z,240
2016-11-16T07:06:29.169Z,268
2016-11-16T07:07:29.807Z,228
2016-11-16T07:08:30.420Z,228
2016-11-16T07:09:31.042Z,228
2016-11-16T07:10:31.694Z,268
2016-11-16T07:11:32.319Z,320
2016-11-16T07:12:32.953Z,328
2016-11-16T07:13:33.571Z,360
2016-11-16T07:14:34.189Z,340
2016-11-16T07:15:34.798Z,376
2016-11-16T07:16:35.419Z,412
2016-11-16T07:17:36.035Z,404
2016-11-16T07:18:36.641Z,408
2016-11-16T07:19:37.255Z,384
2016-11-16T07:20:37.880Z,436
2016-11-16T07:21:38.503Z,524
2016-11-16T07:22:39.122Z,508
2016-11-16T07:23:39.733Z,492
2016-11-16T07:24:40.339Z,584
2016-11-16T07:25:40.966Z,696
2016-11-16T07:26:41.573Z,752
2016-11-16T07:27:42.178Z,728
2016-11-16T07:28:42.797Z,848
2016-11-16T07:29:43.420Z,788
2016-11-16T07:30:44.361Z,796
2016-11-16T07:31:44.966Z,796
2016-11-16T07:32:45.597Z,780
2016-11-16T07:33:46.205Z,844
2016-11-16T07:34:46.815Z,876
2016-11-16T07:35:47.443Z,796
2016-11-16T07:36:48.064Z,832
2016-11-16T07:37:48.678Z,980
2016-11-16T07:38:49.299Z,928
2016-11-16T07:39:49.931Z,948
2016-11-16T07:40:50.679Z,1116
2016-11-16T07:41:51.367Z,1128
2016-11-16T07:42:52.011Z,1168
2016-11-16T07:43:52.672Z,1356
2016-11-16T07:44:53.427Z,1368
2016-11-16T07:45:54.068Z,1548
2016-11-16T07:46:54.691Z,1204
2016-11-16T07:47:55.307Z,1404
2016-11-16T07:48:55.941Z,1388
2016-11-16T07:49:56.559Z,1312
2016-11-16T07:50:57.169Z,1232
2016-11-16T07:51:57.799Z,1304
2016-11-16T07:52:58.434Z,1520
2016-11-16T07:53:59.067Z,1584
2016-11-16T07:54:59.741Z,1756
2016-11-16T07:56:00.360Z,1684
2016-11-16T07:57:00.984Z,1844
2016-11-16T07:58:01.615Z,2108
2016-11-16T07:59:02.380Z,2500
2016-11-16T08:00:03.017Z,2852
2016-11-16T08:01:03.624Z,2924
2016-11-16T08:02:04.258Z,3188
2016-11-16T08:03:04.869Z,3192
2016-11-16T08:04:05.516Z,3360
2016-11-16T08:05:06.140Z,3544
2016-11-16T08:06:06.776Z,3244
2016-11-16T08:07:07.525Z,4620
2016-11-16T08:08:08.268Z,5048
2016-11-16T08:09:08.914Z,5144
2016-11-16T08:10:09.599Z,4664
2016-11-16T08:11:10.237Z,4772
2016-11-16T08:12:10.851Z,5140
2016-11-16T08:13:11.456Z,5452
2016-11-16T08:14:12.079Z,5924
2016-11-16T08:15:12.701Z,5232
2016-11-16T08:16:13.325Z,5740
2016-11-16T08:17:13.948Z,6148
2016-11-16T08:18:14.565Z,6344
2016-11-16T08:19:15.189Z,5632
2016-11-16T08:20:15.809Z,5792
2016-11-16T08:21:16.431Z,5720
2016-11-16T08:22:17.100Z,5504
2016-11-16T08:23:17.722Z,5224
2016-11-16T08:24:18.401Z,4452
2016-11-16T08:25:19.033Z,3888
2016-11-16T08:26:19.691Z,3668
2016-11-16T08:27:20.305Z,3572
2016-11-16T08:28:20.950Z,3552
2016-11-16T08:29:21.571Z,3588
2016-11-16T08:30:22.196Z,3840
2016-11-16T08:31:22.848Z,3872
2016-11-16T08:32:23.461Z,3980
2016-11-16T08:33:24.077Z,4044
2016-11-16T08:34:24.699Z,4048
2016-11-16T08:35:25.319Z,3900
2016-11-16T08:36:25.932Z,3692
2016-11-16T08:37:26.556Z,3624
2016-11-16T08:38:27.187Z,3636
2016-11-16T08:39:27.806Z,3560
2016-11-16T08:40:28.429Z,3524
2016-11-16T08:41:29.040Z,3532
2016-11-16T08:42:29.649Z,3600
2016-11-16T08:43:30.263Z,3804
2016-11-16T08:44:30.963Z,3964
2016-11-16T08:45:31.606Z,4132
2016-11-16T08:46:32.235Z,4140
2016-11-16T08:47:32.867Z,3724
2016-11-16T08:48:33.512Z,3192
2016-11-16T08:49:34.128Z,3076
2016-11-16T08:50:34.864Z,2980
2016-11-16T08:51:35.485Z,2852
2016-11-16T08:52:36.204Z,3036
2016-11-16T08:53:36.870Z,3128
2016-11-16T08:54:37.480Z,3220
2016-11-16T08:55:38.094Z,3376
2016-11-16T08:56:38.747Z,3404
2016-11-16T08:57:39.354Z,3464
2016-11-16T08:58:40.000Z,3596
2016-11-16T08:59:40.690Z,3528
2016-11-16T09:00:41.438Z,3136
2016-11-16T09:01:42.045Z,3308
2016-11-16T09:02:42.666Z,3324
2016-11-16T09:03:43.287Z,2908
2016-11-16T09:04:43.924Z,2688
2016-11-16T09:05:44.578Z,2564
2016-11-16T09:06:45.196Z,2520
2016-11-16T09:07:45.818Z,2424
2016-11-16T09:08:46.451Z,2480
2016-11-16T09:09:47.103Z,2352
2016-11-16T09:10:47.726Z,2124
2016-11-16T09:11:48.347Z,2388
2016-11-16T09:12:48.969Z,2520
2016-11-16T09:13:49.583Z,2568
2016-11-16T09:14:50.197Z,2596
2016-11-16T09:15:50.826Z,2284
2016-11-16T09:16:51.458Z,2336
2016-11-16T09:17:52.272Z,2752
2016-11-16T09:18:52.947Z,3192
2016-11-16T09:19:53.569Z,3364
2016-11-16T09:20:54.202Z,3240
2016-11-16T09:21:54.840Z,2956
2016-11-16T09:22:55.468Z,2724
2016-11-16T09:23:56.102Z,2624
2016-11-16T09:24:56.722Z,2504
2016-11-16T09:25:57.344Z,2424
2016-11-16T09:26:57.963Z,2248
2016-11-16T09:27:58.577Z,2296
2016-11-16T09:28:59.209Z,2300
2016-11-16T09:29:59.823Z,2372
2016-11-16T09:31:00.450Z,2344
2016-11-16T09:32:01.064Z,2328
2016-11-16T09:33:01.694Z,2232
2016-11-16T09:34:02.303Z,2192
2016-11-16T09:35:02.931Z,2284
2016-11-16T09:36:03.545Z,2136
2016-11-16T09:37:04.178Z,2188
2016-11-16T09:38:04.816Z,2368
2016-11-16T09:39:05.474Z,2516
2016-11-16T09:40:06.148Z,2676
2016-11-16T09:41:06.772Z,3224
2016-11-16T09:42:07.435Z,3044
2016-11-16T09:43:08.218Z,2440
2016-11-16T09:44:09.204Z,2428
2016-11-16T09:45:09.825Z,2352
2016-11-16T09:46:10.457Z,2352
2016-11-16T09:47:11.121Z,2176
2016-11-16T09:48:11.772Z,1984
2016-11-16T09:49:12.493Z,1728
2016-11-16T09:50:13.138Z,1512
2016-11-16T09:51:13.821Z,1608
2016-11-16T09:52:14.432Z,1400
2016-11-16T09:53:15.050Z,1372
2016-11-16T09:54:15.721Z,1496
2016-11-16T09:55:16.333Z,1892
2016-11-16T09:56:16.959Z,2284
2016-11-16T09:57:17.579Z,3000
2016-11-16T09:58:18.206Z,4184
2016-11-16T09:59:18.821Z,4688
2016-11-16T10:00:19.468Z,5008
2016-11-16T10:01:20.107Z,4292
2016-11-16T10:02:20.750Z,4100
2016-11-16T10:03:21.410Z,4400
2016-11-16T10:04:22.156Z,4056
2016-11-16T10:05:22.803Z,3172
2016-11-16T10:06:23.459Z,2892
2016-11-16T10:07:24.079Z,3192
2016-11-16T10:08:24.748Z,3388
2016-11-16T10:09:25.363Z,3388
2016-11-16T10:10:26.051Z,3464
2016-11-16T10:11:26.710Z,3444
2016-11-16T10:12:27.339Z,3008
2016-11-16T10:13:28.004Z,3572
2016-11-16T10:14:28.628Z,3564
2016-11-16T10:15:29.262Z,3536
2016-11-16T10:16:29.936Z,3600
2016-11-16T10:17:30.580Z,3284
2016-11-16T10:18:31.203Z,2948
2016-11-16T10:19:31.832Z,2592
2016-11-16T10:20:32.522Z,2648
2016-11-16T10:21:33.128Z,2600
2016-11-16T10:22:33.746Z,2552
2016-11-16T10:23:34.366Z,2356
2016-11-16T10:24:34.993Z,2660
2016-11-16T10:25:35.627Z,2704
2016-11-16T10:26:36.270Z,2704
2016-11-16T10:27:36.909Z,2424
2016-11-16T10:28:37.540Z,2724
2016-11-16T10:29:38.204Z,2296
2016-11-16T10:30:38.834Z,2056
2016-11-16T10:31:39.475Z,2120
2016-11-16T10:32:40.079Z,1944
2016-11-16T10:33:40.760Z,2044
2016-11-16T10:34:41.406Z,2088
2016-11-16T10:35:42.028Z,2308
2016-11-16T10:36:42.714Z,2404
2016-11-16T10:37:43.427Z,2356
2016-11-16T10:38:44.101Z,2332
2016-11-16T10:39:44.767Z,2088
2016-11-16T10:40:45.391Z,1984
2016-11-16T10:41:46.022Z,1944
2016-11-16T10:42:46.645Z,1912
2016-11-16T10:43:47.275Z,1808
2016-11-16T10:44:47.961Z,1700
2016-11-16T10:45:48.578Z,1576
2016-11-16T10:46:49.261Z,1784
2016-11-16T10:47:49.862Z,1736
2016-11-16T10:48:50.492Z,1616
2016-11-16T10:49:51.130Z,1520
2016-11-16T10:50:51.788Z,1556
2016-11-16T10:51:52.409Z,1256
2016-11-16T10:52:53.037Z,1108
2016-11-16T10:53:53.656Z,1092
2016-11-16T10:54:54.278Z,980
2016-11-16T10:55:54.894Z,988
2016-11-16T10:56:55.508Z,880
2016-11-16T10:57:56.132Z,1140
2016-11-16T10:58:56.745Z,1184
2016-11-16T10:59:57.390Z,1356
2016-11-16T11:00:57.998Z,1472
2016-11-16T11:01:58.617Z,1296
2016-11-16T11:02:59.242Z,1212
2016-11-16T11:03:59.863Z,1328
2016-11-16T11:05:00.484Z,1128
2016-11-16T11:06:01.122Z,888
2016-11-16T11:07:01.740Z,1048
2016-11-16T11:08:02.361Z,1040
2016-11-16T11:09:03.016Z,1016
2016-11-16T11:10:03.629Z,1048
2016-11-16T11:11:04.249Z,1136
2016-11-16T11:12:04.886Z,920
2016-11-16T11:13:05.512Z,740
2016-11-16T11:14:06.133Z,728
2016-11-16T11:15:06.754Z,796
2016-11-16T11:16:07.375Z,868
2016-11-16T11:17:08.007Z,1060
2016-11-16T11:18:08.609Z,1100
2016-11-16T11:19:09.223Z,1284
2016-11-16T11:20:09.838Z,1488
2016-11-16T11:21:10.618Z,1884
2016-11-16T11:22:11.244Z,2060
2016-11-16T11:23:11.910Z,1776
2016-11-16T11:24:12.533Z,1724
2016-11-16T11:25:13.154Z,1660
2016-11-16T11:26:13.781Z,1568
2016-11-16T11:27:14.415Z,1388
2016-11-16T11:28:15.035Z,1356
2016-11-16T11:29:15.710Z,1332
2016-11-16T11:30:16.353Z,1320
2016-11-16T11:31:16.989Z,1324
2016-11-16T11:32:17.622Z,1160
2016-11-16T11:33:18.248Z,1168
2016-11-16T11:34:18.864Z,1228
2016-11-16T11:35:19.481Z,1240
2016-11-16T11:36:20.262Z,1200
2016-11-16T11:37:20.884Z,1064
2016-11-16T11:38:21.525Z,972
2016-11-16T11:39:22.165Z,1100
2016-11-16T11:40:22.817Z,1100
2016-11-16T11:41:23.445Z,1180
2016-11-16T11:42:24.119Z,1328
2016-11-16T11:43:24.829Z,1548
2016-11-16T11:44:25.482Z,1576
2016-11-16T11:45:26.121Z,1568
2016-11-16T11:46:26.784Z,1596
2016-11-16T11:47:27.411Z,1708
2016-11-16T11:48:28.029Z,1888
2016-11-16T11:49:28.646Z,1948
2016-11-16T11:50:29.403Z,1908
2016-11-16T11:51:30.188Z,2152
2016-11-16T11:52:30.698Z,1856
2016-11-16T11:53:31.318Z,1728
2016-11-16T11:54:31.939Z,1452
2016-11-16T11:55:32.585Z,1412
2016-11-16T11:56:33.225Z,1432
2016-11-16T11:57:33.896Z,1448
2016-11-16T11:58:34.519Z,1212
2016-11-16T11:59:35.171Z,1248
2016-11-16T12:00:35.795Z,1072
2016-11-16T12:01:36.420Z,1116
2016-11-16T12:02:37.046Z,1012
2016-11-16T12:03:37.673Z,1024
2016-11-16T12:04:38.288Z,1108
2016-11-16T12:05:38.906Z,1268
2016-11-16T12:06:39.534Z,1260
2016-11-16T12:07:40.179Z,1256
2016-11-16T12:08:40.813Z,1268
2016-11-16T12:09:41.449Z,1276
2016-11-16T12:10:42.069Z,1176
2016-11-16T12:11:42.709Z,1420
2016-11-16T12:12:43.357Z,1536
2016-11-16T12:13:43.977Z,1552
2016-11-16T12:14:44.609Z,1420
2016-11-16T12:15:45.229Z,1356
2016-11-16T12:16:45.852Z,1428
2016-11-16T12:17:46.469Z,2136
2016-11-16T12:18:47.108Z,2160
2016-11-16T12:19:47.735Z,1900
2016-11-16T12:20:48.368Z,1360
2016-11-16T12:21:48.992Z,1352
2016-11-16T12:22:49.610Z,1340
2016-11-16T12:23:50.224Z,2064
2016-11-16T12:24:50.841Z,2700
2016-11-16T12:25:51.488Z,1616
2016-11-16T12:26:52.102Z,1448
2016-11-16T12:27:52.803Z,1752
2016-11-16T12:28:53.428Z,1820
2016-11-16T12:29:54.062Z,2328
2016-11-16T12:30:54.681Z,2932
2016-11-16T12:31:55.317Z,2180
2016-11-16T12:32:55.940Z,2644
2016-11-16T12:33:56.563Z,3320
2016-11-16T12:34:57.201Z,1976
2016-11-16T12:35:57.826Z,1848
2016-11-16T12:36:58.451Z,2372
2016-11-16T12:37:59.080Z,2596
2016-11-16T12:38:59.735Z,3152
2016-11-16T12:40:00.409Z,3100
2016-11-16T12:41:01.030Z,2460
2016-11-16T12:42:01.641Z,2580
2016-11-16T12:43:02.294Z,2144
2016-11-16T12:44:02.976Z,1864
2016-11-16T12:45:03.659Z,1480
2016-11-16T12:46:04.492Z,1664
2016-11-16T12:47:05.119Z,2044
2016-11-16T12:48:05.796Z,1472
2016-11-16T12:49:06.418Z,1844
2016-11-16T12:50:07.063Z,2316
2016-11-16T12:51:07.698Z,2956
2016-11-16T12:52:08.323Z,2932
2016-11-16T12:53:08.949Z,2900
2016-11-16T12:54:09.582Z,2052
2016-11-16T12:55:10.276Z,3160
2016-11-16T12:56:10.908Z,3780
2016-11-16T12:57:11.527Z,3396
2016-11-16T12:58:12.160Z,3972
2016-11-16T12:59:12.818Z,4088
2016-11-16T13:00:13.470Z,4680
2016-11-16T13:01:14.127Z,3464
2016-11-16T13:02:14.754Z,3636
2016-11-16T13:03:15.425Z,3336
2016-11-16T13:04:16.039Z,2820
2016-11-16T13:05:16.664Z,2584
2016-11-16T13:06:17.367Z,2228
2016-11-16T13:07:18.002Z,2624
2016-11-16T13:08:18.624Z,2736
2016-11-16T13:09:19.252Z,3348
2016-11-16T13:10:19.977Z,3656
2016-11-16T13:11:20.668Z,4076
2016-11-16T13:12:21.368Z,3136
2016-11-16T13:13:21.990Z,3640
2016-11-16T13:14:22.656Z,3332
2016-11-16T13:15:23.376Z,3748
2016-11-16T13:16:24.152Z,3304
2016-11-16T13:17:24.564Z,3320
2016-11-16T13:18:25.261Z,3816
2016-11-16T13:19:25.902Z,4288
2016-11-16T13:20:26.585Z,4752
2016-11-16T13:21:27.193Z,4424
2016-11-16T13:22:27.822Z,4056
2016-11-16T13:23:28.466Z,4104
2016-11-16T13:24:29.091Z,3792
2016-11-16T13:25:29.739Z,3656
2016-11-16T13:26:30.406Z,3356
2016-11-16T13:27:31.030Z,2428
2016-11-16T13:28:31.671Z,2628
2016-11-16T13:29:32.315Z,2188
2016-11-16T13:30:32.979Z,2308
2016-11-16T13:31:33.659Z,2248
2016-11-16T13:32:34.292Z,3588
2016-11-16T13:33:34.928Z,2784
2016-11-16T13:34:35.637Z,2688
2016-11-16T13:35:36.263Z,2812
2016-11-16T13:36:36.898Z,2460
2016-11-16T13:37:37.524Z,2312
2016-11-16T13:38:38.222Z,1904
2016-11-16T13:39:38.848Z,1828
2016-11-16T13:40:39.477Z,1860
2016-11-16T13:41:40.099Z,1856
2016-11-16T13:42:40.731Z,1868
2016-11-16T13:43:41.355Z,1848
2016-11-16T13:44:41.968Z,1820
2016-11-16T13:45:42.606Z,1812
2016-11-16T13:46:43.219Z,1804
2016-11-16T13:47:43.848Z,2140
2016-11-16T13:48:44.474Z,2300
2016-11-16T13:49:45.100Z,2128
2016-11-16T13:50:45.722Z,1924
2016-11-16T13:51:46.357Z,2552
2016-11-16T13:52:46.988Z,2496
2016-11-16T13:53:47.628Z,1820
2016-11-16T13:54:48.327Z,1756
2016-11-16T13:55:48.954Z,1780
2016-11-16T13:56:49.591Z,1660
2016-11-16T13:57:50.215Z,1452
2016-11-16T13:58:50.838Z,1444
2016-11-16T13:59:51.466Z,1352
2016-11-16T14:00:52.119Z,1384
2016-11-16T14:01:52.763Z,1444
2016-11-16T14:02:53.414Z,1568
2016-11-16T14:03:54.046Z,1520
2016-11-16T14:04:54.685Z,1708
2016-11-16T14:05:55.312Z,1968
2016-11-16T14:06:55.950Z,2316
2016-11-16T14:07:56.584Z,1920
2016-11-16T14:08:57.204Z,1632
2016-11-16T14:09:57.823Z,1476